Time;durP1;ratioP1;P1;durP2;ratioP2;P2;SDS_P1;SDS_P2;PMS_P1;PMS_P2;Temp;Humidity;BMP_temperature;BMP_pressure;BME280_temperature;BME280_humidity;BME280_pressure;Samples;Min_cycle;Max_cycle;Signal;HPM_P1;HPM_P2
2021/09/25 00:00:53;;;;;;;12.18;10.95;;;;;;;;;;2080689;28;20785;-68
2021/09/25 00:01:54;;;;;;;12.40;11.20;;;;;;;;;;2080541;28;20629;-67
2021/09/25 00:02:55;;;;;;;11.57;10.45;;;;;;;;;;2081244;28;20262;-68
2021/09/25 00:03:55;;;;;;;12.25;10.95;;;;;;;;;;2080305;28;20200;-68
2021/09/25 00:04:55;;;;;;;12.07;10.88;;;;;;;;;;2089025;28;20199;-67
2021/09/25 00:05:55;;;;;;;12.25;11.02;;;;;;;;;;2088918;28;20194;-68
2021/09/25 00:06:56;;;;;;;11.95;10.75;;;;;;;;;;2089784;28;20168;-68
2021/09/25 00:07:56;;;;;;;14.65;11.07;;;;;;;;;;2088710;28;20175;-67
2021/09/25 00:08:57;;;;;;;11.57;10.40;;;;;;;;;;2090125;28;20207;-67
2021/09/25 00:09:58;;;;;;;12.40;10.13;;;;;;;;;;2089653;28;20168;-67
2021/09/25 00:10:58;;;;;;;12.07;10.75;;;;;;;;;;2089885;28;20218;-67
2021/09/25 00:11:58;;;;;;;11.48;10.27;;;;;;;;;;2088588;28;20182;-67
2021/09/25 00:12:59;;;;;;;11.45;10.23;;;;;;;;;;2087933;28;20643;-68
2021/09/25 00:14:00;;;;;;;13.25;10.40;;;;;;;;;;2087546;28;20564;-67
2021/09/25 00:15:00;;;;;;;12.50;10.43;;;;;;;;;;2088888;28;20175;-67
2021/09/25 00:16:00;;;;;;;12.45;10.07;;;;;;;;;;2089582;28;20678;-67
2021/09/25 00:17:01;;;;;;;12.70;9.98;;;;;;;;;;2088940;28;20542;-67
2021/09/25 00:18:02;;;;;;;11.27;9.90;;;;;;;;;;2088525;28;20176;-67
2021/09/25 00:19:03;;;;;;;12.45;10.77;;;;;;;;;;2089013;28;20167;-67
2021/09/25 00:20:03;;;;;;;11.65;10.45;;;;;;;;;;2088779;28;20225;-68
2021/09/25 00:21:04;;;;;;;14.23;10.90;;;;;;;;;;2087829;28;20672;-67
2021/09/25 00:22:04;;;;;;;11.95;9.75;;;;;;;;;;2089446;28;20172;-67
2021/09/25 00:23:05;;;;;;;12.60;11.20;;;;;;;;;;2080649;28;20172;-67
2021/09/25 00:24:05;;;;;;;11.25;10.02;;;;;;;;;;2080854;28;20176;-67
2021/09/25 00:25:06;;;;;;;11.23;10.13;;;;;;;;;;2085597;28;20188;-69
2021/09/25 00:26:06;;;;;;;11.13;9.73;;;;;;;;;;2090042;28;20179;-69
2021/09/25 00:27:07;;;;;;;11.15;9.98;;;;;;;;;;2080893;28;20172;-68
2021/09/25 00:28:07;;;;;;;13.73;10.70;;;;;;;;;;2072858;28;20180;-68
2021/09/25 00:29:07;;;;;;;11.50;10.38;;;;;;;;;;2072189;28;20759;-69
2021/09/25 00:30:09;;;;;;;11.82;10.57;;;;;;;;;;2080333;28;20176;-67
2021/09/25 00:31:09;;;;;;;10.95;9.75;;;;;;;;;;2089004;28;20183;-67
2021/09/25 00:32:09;;;;;;;10.70;9.68;;;;;;;;;;2089598;28;20519;-69
2021/09/25 00:33:09;;;;;;;12.45;10.43;;;;;;;;;;2080882;28;20228;-67
2021/09/25 00:34:10;;;;;;;11.02;9.70;;;;;;;;;;2081090;28;20200;-67
2021/09/25 00:35:11;;;;;;;12.77;11.10;;;;;;;;;;2080999;28;20641;-68
2021/09/25 00:36:11;;;;;;;9.98;8.98;;;;;;;;;;2080977;28;20259;-68
2021/09/25 00:37:11;;;;;;;10.30;9.23;;;;;;;;;;2073241;28;20181;-68
2021/09/25 00:38:12;;;;;;;11.93;10.73;;;;;;;;;;2065148;28;20856;-67
2021/09/25 00:39:12;;;;;;;11.38;10.25;;;;;;;;;;2079775;28;20180;-68
2021/09/25 00:40:14;;;;;;;13.90;9.93;;;;;;;;;;2090194;28;20522;-68
2021/09/25 00:41:14;;;;;;;12.65;11.32;;;;;;;;;;2089855;28;20180;-68
2021/09/25 00:42:14;;;;;;;11.82;10.30;;;;;;;;;;2089831;28;20167;-68
2021/09/25 00:43:15;;;;;;;11.85;10.43;;;;;;;;;;2089840;28;20190;-68
2021/09/25 00:44:15;;;;;;;10.45;9.48;;;;;;;;;;2089850;28;20547;-67
2021/09/25 00:45:18;;;;;;;11.57;10.40;;;;;;;;;;2087158;28;20176;-68
2021/09/25 00:46:20;;;;;;;11.32;10.23;;;;;;;;;;2089872;28;20182;-67
2021/09/25 00:47:20;;;;;;;13.10;10.38;;;;;;;;;;2089824;28;20273;-69
2021/09/25 00:48:20;;;;;;;11.52;10.43;;;;;;;;;;2088816;28;20237;-68
2021/09/25 00:49:21;;;;;;;12.13;10.85;;;;;;;;;;2089911;28;20662;-67
2021/09/25 00:50:24;;;;;;;12.82;11.30;;;;;;;;;;2089652;28;20176;-68
2021/09/25 00:51:25;;;;;;;12.82;10.75;;;;;;;;;;2089809;28;20637;-67
2021/09/25 00:52:25;;;;;;;12.70;10.00;;;;;;;;;;2089209;28;20193;-67
2021/09/25 00:53:25;;;;;;;12.63;11.35;;;;;;;;;;2089684;28;20202;-67
2021/09/25 00:54:26;;;;;;;11.77;10.57;;;;;;;;;;2089666;28;20168;-67
2021/09/25 00:55:26;;;;;;;13.57;11.18;;;;;;;;;;2089861;28;20198;-68
2021/09/25 00:56:27;;;;;;;13.02;10.38;;;;;;;;;;2089555;28;20242;-67
2021/09/25 00:57:27;;;;;;;13.02;11.00;;;;;;;;;;2087072;28;20644;-68
2021/09/25 00:58:28;;;;;;;12.77;11.45;;;;;;;;;;2080051;28;20173;-68
2021/09/25 00:59:28;;;;;;;12.15;10.95;;;;;;;;;;2080857;28;20180;-67
2021/09/25 01:00:29;;;;;;;14.15;11.30;;;;;;;;;;2089443;28;20213;-67
2021/09/25 01:01:30;;;;;;;11.77;10.43;;;;;;;;;;2089809;28;20675;-68
2021/09/25 01:02:30;;;;;;;12.45;10.80;;;;;;;;;;2089813;28;20187;-67
2021/09/25 01:03:30;;;;;;;13.88;11.30;;;;;;;;;;2089765;28;20196;-67
2021/09/25 01:04:32;;;;;;;12.30;11.10;;;;;;;;;;2089516;28;20549;-68
2021/09/25 01:05:32;;;;;;;12.07;10.85;;;;;;;;;;2089772;28;20164;-67
2021/09/25 01:06:33;;;;;;;12.55;11.20;;;;;;;;;;2079558;28;20191;-67
2021/09/25 01:07:33;;;;;;;11.95;10.75;;;;;;;;;;2080855;28;20184;-67
2021/09/25 01:08:33;;;;;;;13.55;11.52;;;;;;;;;;2089333;28;20297;-67
2021/09/25 01:09:33;;;;;;;12.63;11.43;;;;;;;;;;2089792;28;20705;-67
2021/09/25 01:10:34;;;;;;;13.68;11.07;;;;;;;;;;2089604;28;20536;-67
2021/09/25 01:11:34;;;;;;;12.95;11.57;;;;;;;;;;2089721;28;20663;-67
2021/09/25 01:12:35;;;;;;;14.93;11.82;;;;;;;;;;2089582;28;20175;-67
2021/09/25 01:13:35;;;;;;;12.50;11.20;;;;;;;;;;2089446;28;20613;-67
2021/09/25 01:14:35;;;;;;;12.70;11.38;;;;;;;;;;2089446;28;20172;-67
2021/09/25 01:15:35;;;;;;;12.95;11.75;;;;;;;;;;2089720;28;20634;-67
2021/09/25 01:16:36;;;;;;;16.13;12.23;;;;;;;;;;2080757;28;20521;-67
2021/09/25 01:17:36;;;;;;;14.90;11.02;;;;;;;;;;2080535;28;20164;-67
2021/09/25 01:18:36;;;;;;;11.80;10.68;;;;;;;;;;2088745;28;20537;-67
2021/09/25 01:19:37;;;;;;;13.80;12.40;;;;;;;;;;2088648;28;20178;-67
2021/09/25 01:20:37;;;;;;;13.30;11.48;;;;;;;;;;2088075;28;20530;-67
2021/09/25 01:21:37;;;;;;;12.55;11.25;;;;;;;;;;2087688;28;20599;-67
2021/09/25 01:22:38;;;;;;;12.73;11.48;;;;;;;;;;2090302;28;20225;-68
2021/09/25 01:23:38;;;;;;;14.68;11.40;;;;;;;;;;2086391;28;20243;-68
2021/09/25 01:24:38;;;;;;;13.15;11.63;;;;;;;;;;2078103;28;20326;-68
2021/09/25 01:25:39;;;;;;;12.98;11.68;;;;;;;;;;2068567;28;20169;-68
2021/09/25 01:26:40;;;;;;;14.07;12.77;;;;;;;;;;2079320;28;20184;-68
2021/09/25 01:27:40;;;;;;;15.40;12.27;;;;;;;;;;2087052;28;20199;-68
2021/09/25 01:28:41;;;;;;;12.75;11.40;;;;;;;;;;2087440;28;20561;-67
2021/09/25 01:29:42;;;;;;;14.35;12.95;;;;;;;;;;2089318;28;20215;-68
2021/09/25 01:30:42;;;;;;;15.35;12.65;;;;;;;;;;2088664;28;20176;-68
2021/09/25 01:31:42;;;;;;;13.98;12.60;;;;;;;;;;2088617;28;20175;-68
2021/09/25 01:32:42;;;;;;;13.73;12.25;;;;;;;;;;2086074;28;20171;-68
2021/09/25 01:33:48;;;;;;;16.25;12.80;;;;;;;;;;2087051;28;20211;-68
2021/09/25 01:34:48;;;;;;;13.80;12.27;;;;;;;;;;2086916;28;20174;-68
2021/09/25 01:35:49;;;;;;;14.20;11.75;;;;;;;;;;2087204;28;20547;-68
2021/09/25 01:36:49;;;;;;;14.43;12.63;;;;;;;;;;2086649;28;20168;-67
2021/09/25 01:37:51;;;;;;;15.77;13.63;;;;;;;;;;2077002;28;20643;-68
2021/09/25 01:38:51;;;;;;;14.70;13.02;;;;;;;;;;2077172;28;20188;-67
2021/09/25 01:39:51;;;;;;;15.23;12.70;;;;;;;;;;2088976;28;20278;-68
2021/09/25 01:40:52;;;;;;;16.58;12.93;;;;;;;;;;2086515;28;20230;-68
2021/09/25 01:41:52;;;;;;;14.20;12.70;;;;;;;;;;2088880;28;20175;-68
2021/09/25 01:42:52;;;;;;;17.75;14.38;;;;;;;;;;2087803;28;20184;-68
2021/09/25 01:43:53;;;;;;;14.45;13.02;;;;;;;;;;2086436;28;20195;-68
2021/09/25 01:44:53;;;;;;;14.65;12.85;;;;;;;;;;2087778;28;20298;-68
2021/09/25 01:45:53;;;;;;;14.82;13.30;;;;;;;;;;2086348;28;20211;-68
2021/09/25 01:46:54;;;;;;;14.85;13.27;;;;;;;;;;2086586;28;20171;-68
2021/09/25 01:47:55;;;;;;;14.77;13.27;;;;;;;;;;2086451;28;20187;-68
2021/09/25 01:48:55;;;;;;;18.27;13.38;;;;;;;;;;2086648;28;20180;-68
2021/09/25 01:49:58;;;;;;;14.77;12.60;;;;;;;;;;2086397;28;20219;-68
2021/09/25 01:50:58;;;;;;;14.32;12.82;;;;;;;;;;2079702;28;20187;-68
2021/09/25 01:51:58;;;;;;;14.70;13.10;;;;;;;;;;2077416;28;20172;-68
2021/09/25 01:52:59;;;;;;;15.60;13.90;;;;;;;;;;2088347;28;20178;-67
2021/09/25 01:53:59;;;;;;;13.95;12.45;;;;;;;;;;2085540;28;20180;-68
2021/09/25 01:54:59;;;;;;;14.70;12.43;;;;;;;;;;2085716;28;20176;-68
2021/09/25 01:56:10;;;;;;;14.93;12.52;;;;;;;;;;2088551;28;20175;-68
2021/09/25 01:57:10;;;;;;;14.02;12.35;;;;;;;;;;2074856;28;20188;-68
2021/09/25 01:58:10;;;;;;;14.95;13.35;;;;;;;;;;2063380;28;20211;-68
2021/09/25 01:59:11;;;;;;;14.25;12.75;;;;;;;;;;2070975;28;20251;-68
2021/09/25 02:00:11;;;;;;;14.45;12.95;;;;;;;;;;2084777;28;20222;-67
2021/09/25 02:01:12;;;;;;;15.02;13.52;;;;;;;;;;2085181;28;20533;-68
2021/09/25 02:02:13;;;;;;;16.92;12.90;;;;;;;;;;2089257;28;20566;-68
2021/09/25 02:03:13;;;;;;;14.25;12.82;;;;;;;;;;2087645;28;20206;-68
2021/09/25 02:04:13;;;;;;;15.30;13.02;;;;;;;;;;2086170;28;20183;-68
2021/09/25 02:05:15;;;;;;;17.75;12.75;;;;;;;;;;2086582;28;20610;-68
2021/09/25 02:06:15;;;;;;;15.43;13.70;;;;;;;;;;2070047;28;20199;-68
2021/09/25 02:07:17;;;;;;;14.07;12.65;;;;;;;;;;2071452;28;20193;-68
2021/09/25 02:08:17;;;;;;;15.82;13.73;;;;;;;;;;2085314;28;20264;-68
2021/09/25 02:09:17;;;;;;;16.58;13.57;;;;;;;;;;2086525;28;20204;-68
2021/09/25 02:10:18;;;;;;;17.23;13.40;;;;;;;;;;2086867;28;20237;-68
2021/09/25 02:11:19;;;;;;;18.35;13.68;;;;;;;;;;2088348;28;20176;-68
2021/09/25 02:12:20;;;;;;;19.67;13.15;;;;;;;;;;2088737;28;20662;-67
2021/09/25 02:13:20;;;;;;;16.73;12.65;;;;;;;;;;2089824;28;20183;-67
2021/09/25 02:14:20;;;;;;;15.38;13.38;;;;;;;;;;2079065;28;20171;-68
2021/09/25 02:15:20;;;;;;;15.68;13.00;;;;;;;;;;2078579;28;20207;-68
2021/09/25 02:16:21;;;;;;;14.40;11.82;;;;;;;;;;2087986;28;20175;-68
2021/09/25 02:17:21;;;;;;;15.30;13.27;;;;;;;;;;2087400;28;20183;-68
2021/09/25 02:18:22;;;;;;;15.15;13.55;;;;;;;;;;2089659;28;20289;-67
2021/09/25 02:19:22;;;;;;;16.70;13.85;;;;;;;;;;2088148;28;20175;-68
2021/09/25 02:20:22;;;;;;;16.63;13.95;;;;;;;;;;2087550;28;20183;-68
2021/09/25 02:21:22;;;;;;;16.92;14.52;;;;;;;;;;2089972;28;20180;-68
2021/09/25 02:22:23;;;;;;;18.42;14.00;;;;;;;;;;2089223;28;20183;-68
2021/09/25 02:23:23;;;;;;;17.15;14.20;;;;;;;;;;2087603;28;20199;-68
2021/09/25 02:24:23;;;;;;;17.02;14.27;;;;;;;;;;2089541;28;20301;-68
2021/09/25 02:25:23;;;;;;;19.08;14.80;;;;;;;;;;2089956;28;20179;-68
2021/09/25 02:26:24;;;;;;;16.35;14.20;;;;;;;;;;2087585;28;20187;-68
2021/09/25 02:27:24;;;;;;;19.35;14.73;;;;;;;;;;2089694;28;20219;-68
2021/09/25 02:28:24;;;;;;;17.65;13.50;;;;;;;;;;2080869;28;20270;-68
2021/09/25 02:29:25;;;;;;;17.90;14.63;;;;;;;;;;2081832;28;20273;-68
2021/09/25 02:30:26;;;;;;;16.75;14.68;;;;;;;;;;2089938;28;20226;-68
2021/09/25 02:31:27;;;;;;;18.20;13.85;;;;;;;;;;2091029;28;20160;-68
2021/09/25 02:32:27;;;;;;;15.90;14.00;;;;;;;;;;2086731;28;20619;-67
2021/09/25 02:33:27;;;;;;;17.35;14.25;;;;;;;;;;2081543;28;20591;-67
2021/09/25 02:34:27;;;;;;;15.23;13.57;;;;;;;;;;2079506;28;20192;-67
2021/09/25 02:35:28;;;;;;;16.17;13.55;;;;;;;;;;2081534;28;20253;-66
2021/09/25 02:36:28;;;;;;;16.08;13.43;;;;;;;;;;2080667;28;20695;-67
2021/09/25 02:37:28;;;;;;;16.02;13.02;;;;;;;;;;2081332;28;20541;-67
2021/09/25 02:38:29;;;;;;;14.40;12.60;;;;;;;;;;2080790;28;20183;-67
2021/09/25 02:39:29;;;;;;;13.55;12.15;;;;;;;;;;2090729;28;20167;-67
2021/09/25 02:40:30;;;;;;;14.52;12.32;;;;;;;;;;2087558;28;20168;-67
2021/09/25 02:41:30;;;;;;;19.15;13.77;;;;;;;;;;2090759;28;20518;-67
2021/09/25 02:42:30;;;;;;;17.50;12.55;;;;;;;;;;2089853;28;20266;-67
2021/09/25 02:43:30;;;;;;;18.95;13.93;;;;;;;;;;2078087;28;20200;-67
2021/09/25 02:44:30;;;;;;;15.40;12.88;;;;;;;;;;2072255;28;20212;-67
2021/09/25 02:45:31;;;;;;;17.42;12.50;;;;;;;;;;2071399;28;20256;-67
2021/09/25 02:46:32;;;;;;;14.20;12.18;;;;;;;;;;2081293;28;20175;-67
2021/09/25 02:47:32;;;;;;;13.93;12.30;;;;;;;;;;2090247;28;20663;-67
2021/09/25 02:48:32;;;;;;;13.57;12.02;;;;;;;;;;2081192;28;20176;-66
2021/09/25 02:49:32;;;;;;;12.48;11.27;;;;;;;;;;2081216;28;20196;-67
2021/09/25 02:50:33;;;;;;;12.68;11.32;;;;;;;;;;2081183;28;20176;-67
2021/09/25 02:51:33;;;;;;;15.23;12.00;;;;;;;;;;2088778;28;20172;-68
2021/09/25 02:52:33;;;;;;;12.63;11.32;;;;;;;;;;2088109;28;20168;-66
2021/09/25 02:53:34;;;;;;;13.32;11.65;;;;;;;;;;2088249;28;20260;-68
2021/09/25 02:54:34;;;;;;;12.80;11.20;;;;;;;;;;2083216;28;20175;-66
2021/09/25 02:55:34;;;;;;;13.13;11.65;;;;;;;;;;2080709;28;20183;-67
2021/09/25 02:56:35;;;;;;;13.88;11.50;;;;;;;;;;2080707;28;20560;-67
2021/09/25 02:57:35;;;;;;;12.65;11.32;;;;;;;;;;2088676;28;20180;-67
2021/09/25 02:58:35;;;;;;;12.68;11.38;;;;;;;;;;2089391;28;20264;-67
2021/09/25 02:59:36;;;;;;;12.75;11.52;;;;;;;;;;2087333;28;20171;-67
2021/09/25 03:00:36;;;;;;;12.43;11.13;;;;;;;;;;2079064;28;20554;-67
2021/09/25 03:01:36;;;;;;;13.65;12.15;;;;;;;;;;2079686;28;20175;-67
2021/09/25 03:02:36;;;;;;;16.90;11.57;;;;;;;;;;2089811;28;20674;-67
2021/09/25 03:03:36;;;;;;;14.10;10.77;;;;;;;;;;2088013;28;20290;-67
2021/09/25 03:04:37;;;;;;;13.90;10.82;;;;;;;;;;2088552;28;20172;-67
2021/09/25 03:05:37;;;;;;;12.05;10.85;;;;;;;;;;2088935;28;20206;-67
2021/09/25 03:06:37;;;;;;;11.82;10.63;;;;;;;;;;2090080;28;20637;-67
2021/09/25 03:07:37;;;;;;;14.93;11.93;;;;;;;;;;2089611;28;20176;-67
2021/09/25 03:08:38;;;;;;;15.27;10.98;;;;;;;;;;2089507;28;20807;-67
2021/09/25 03:09:38;;;;;;;15.15;11.27;;;;;;;;;;2089208;28;20814;-67
2021/09/25 03:10:38;;;;;;;13.57;11.25;;;;;;;;;;2089684;28;20674;-66
2021/09/25 03:11:38;;;;;;;12.45;11.05;;;;;;;;;;2090179;28;20242;-67
2021/09/25 03:12:39;;;;;;;12.63;11.13;;;;;;;;;;2089867;28;20222;-67
2021/09/25 03:13:39;;;;;;;14.82;11.27;;;;;;;;;;2079716;28;20215;-67
2021/09/25 03:14:39;;;;;;;12.25;10.90;;;;;;;;;;2080516;28;20184;-67
2021/09/25 03:15:40;;;;;;;17.00;12.20;;;;;;;;;;2088520;28;20213;-67
2021/09/25 03:16:40;;;;;;;13.50;10.90;;;;;;;;;;2088385;28;20263;-67
2021/09/25 03:17:40;;;;;;;13.38;10.80;;;;;;;;;;2088777;28;20168;-67
2021/09/25 03:18:40;;;;;;;12.80;11.48;;;;;;;;;;2088252;28;20204;-67
2021/09/25 03:19:42;;;;;;;12.52;11.00;;;;;;;;;;2088879;28;20183;-67
2021/09/25 03:20:42;;;;;;;12.65;10.95;;;;;;;;;;2088789;28;20255;-67
2021/09/25 03:21:42;;;;;;;15.52;11.60;;;;;;;;;;2088652;28;20183;-69
2021/09/25 03:22:42;;;;;;;12.52;10.18;;;;;;;;;;2086718;28;20325;-67
2021/09/25 03:23:43;;;;;;;13.40;10.25;;;;;;;;;;2087885;28;20210;-68
2021/09/25 03:24:44;;;;;;;14.95;11.85;;;;;;;;;;2078308;28;20165;-68
2021/09/25 03:25:44;;;;;;;13.75;10.55;;;;;;;;;;2070595;28;20608;-68
2021/09/25 03:26:44;;;;;;;16.58;11.25;;;;;;;;;;2080216;28;20180;-68
2021/09/25 03:27:45;;;;;;;14.45;10.95;;;;;;;;;;2086418;28;20687;-68
2021/09/25 03:28:45;;;;;;;14.65;10.60;;;;;;;;;;2086850;28;20678;-68
2021/09/25 03:29:46;;;;;;;13.80;11.07;;;;;;;;;;2089090;28;20230;-68
2021/09/25 03:30:46;;;;;;;14.98;11.43;;;;;;;;;;2089471;28;20644;-68
2021/09/25 03:31:46;;;;;;;12.43;9.77;;;;;;;;;;2081200;28;20226;-68
2021/09/25 03:32:47;;;;;;;13.55;11.05;;;;;;;;;;2069577;28;20264;-68
2021/09/25 03:33:47;;;;;;;16.55;11.85;;;;;;;;;;2080835;28;20203;-68
2021/09/25 03:34:47;;;;;;;14.05;11.32;;;;;;;;;;2088479;28;20168;-68
2021/09/25 03:35:47;;;;;;;12.30;11.05;;;;;;;;;;2088307;28;20767;-68
2021/09/25 03:36:48;;;;;;;13.15;10.80;;;;;;;;;;2088069;28;20190;-68
2021/09/25 03:37:48;;;;;;;12.15;10.65;;;;;;;;;;2088235;28;20250;-68
2021/09/25 03:38:48;;;;;;;17.38;12.57;;;;;;;;;;2087906;28;20306;-68
2021/09/25 03:39:48;;;;;;;11.60;10.48;;;;;;;;;;2079391;28;20202;-68
2021/09/25 03:40:49;;;;;;;12.90;10.73;;;;;;;;;;2080779;28;20172;-68
2021/09/25 03:41:50;;;;;;;17.13;10.90;;;;;;;;;;2088598;28;20219;-68
2021/09/25 03:42:50;;;;;;;12.57;10.95;;;;;;;;;;2072486;28;20452;-68
2021/09/25 03:43:50;;;;;;;10.82;9.82;;;;;;;;;;2072041;28;20200;-68
2021/09/25 03:44:51;;;;;;;12.70;10.73;;;;;;;;;;2080696;28;20177;-68
2021/09/25 03:45:51;;;;;;;12.63;10.68;;;;;;;;;;2070604;28;20222;-69
2021/09/25 03:46:51;;;;;;;13.85;11.57;;;;;;;;;;2072314;28;20181;-67
2021/09/25 03:47:57;;;;;;;14.43;10.73;;;;;;;;;;2073324;28;20240;-66
2021/09/25 03:48:58;;;;;;;13.25;11.43;;;;;;;;;;2080944;28;20186;-66
2021/09/25 03:49:58;;;;;;;12.00;10.43;;;;;;;;;;2080283;28;20173;-67
2021/09/25 03:50:58;;;;;;;12.73;11.43;;;;;;;;;;2070826;28;20227;-66
2021/09/25 03:51:58;;;;;;;13.93;10.35;;;;;;;;;;2079764;28;20251;-67
2021/09/25 03:52:58;;;;;;;14.07;10.50;;;;;;;;;;2080021;28;20287;-66
2021/09/25 03:53:59;;;;;;;12.43;11.15;;;;;;;;;;2079279;28;20175;-66
2021/09/25 03:54:59;;;;;;;14.43;11.02;;;;;;;;;;2088068;28;20693;-67
2021/09/25 03:56:00;;;;;;;13.65;10.65;;;;;;;;;;2089250;28;20234;-67
2021/09/25 03:57:00;;;;;;;12.35;11.10;;;;;;;;;;2078550;28;20165;-66
2021/09/25 03:58:00;;;;;;;14.98;11.80;;;;;;;;;;2078078;28;20264;-67
2021/09/25 03:59:00;;;;;;;14.00;11.32;;;;;;;;;;2088869;28;20172;-66
2021/09/25 04:00:01;;;;;;;15.10;10.52;;;;;;;;;;2078156;28;20176;-67
2021/09/25 04:01:01;;;;;;;13.23;11.65;;;;;;;;;;2076875;28;20715;-66
2021/09/25 04:02:01;;;;;;;12.52;10.95;;;;;;;;;;2079556;28;20172;-67
2021/09/25 04:03:01;;;;;;;14.15;11.20;;;;;;;;;;2080460;28;20760;-67
2021/09/25 04:04:02;;;;;;;12.68;11.05;;;;;;;;;;2089228;28;20640;-66
2021/09/25 04:05:02;;;;;;;13.95;11.48;;;;;;;;;;2087539;28;20540;-66
2021/09/25 04:06:02;;;;;;;14.63;11.48;;;;;;;;;;2087107;28;20251;-66
2021/09/25 04:07:03;;;;;;;12.70;10.57;;;;;;;;;;2087479;28;20210;-66
2021/09/25 04:08:03;;;;;;;13.88;11.77;;;;;;;;;;2088869;28;20169;-67
2021/09/25 04:09:06;;;;;;;12.00;10.45;;;;;;;;;;2088609;28;20180;-67
2021/09/25 04:10:06;;;;;;;13.00;10.82;;;;;;;;;;2080213;28;20205;-67
2021/09/25 04:11:07;;;;;;;15.05;11.10;;;;;;;;;;2077759;28;20672;-67
2021/09/25 04:12:07;;;;;;;13.85;11.00;;;;;;;;;;2085889;28;20210;-67
2021/09/25 04:13:07;;;;;;;13.32;11.52;;;;;;;;;;2086532;28;20186;-68
2021/09/25 04:14:08;;;;;;;15.10;11.77;;;;;;;;;;2099272;22;20259;-61
2021/09/25 04:15:09;;;;;;;12.77;11.35;;;;;;;;;;2069930;28;20219;-63
2021/09/25 04:16:09;;;;;;;13.55;11.02;;;;;;;;;;2072198;28;20296;-65
2021/09/25 04:17:09;;;;;;;14.77;11.23;;;;;;;;;;2070823;28;20185;-64
2021/09/25 04:18:09;;;;;;;15.88;12.13;;;;;;;;;;2068220;28;20157;-64
2021/09/25 04:19:10;;;;;;;16.13;11.38;;;;;;;;;;2069132;28;20191;-63
2021/09/25 04:20:11;;;;;;;14.65;11.43;;;;;;;;;;2070633;28;20343;-64
2021/09/25 04:21:14;;;;;;;16.13;12.20;;;;;;;;;;2073669;28;20165;-65
2021/09/25 04:22:14;;;;;;;13.40;11.63;;;;;;;;;;2063521;28;20273;-63
2021/09/25 04:23:14;;;;;;;15.55;11.52;;;;;;;;;;2065764;28;20188;-64
2021/09/25 04:24:14;;;;;;;13.48;11.60;;;;;;;;;;2070234;28;20227;-65
2021/09/25 04:25:15;;;;;;;15.52;11.88;;;;;;;;;;2072247;28;20729;-64
2021/09/25 04:26:16;;;;;;;12.88;11.48;;;;;;;;;;2063888;28;20596;-64
2021/09/25 04:27:16;;;;;;;14.32;11.20;;;;;;;;;;2064210;28;20264;-63
2021/09/25 04:28:16;;;;;;;12.98;10.52;;;;;;;;;;2071599;28;20172;-64
2021/09/25 04:29:17;;;;;;;14.82;11.48;;;;;;;;;;2072858;28;20566;-64
2021/09/25 04:30:17;;;;;;;12.70;11.32;;;;;;;;;;2071560;28;20213;-59
2021/09/25 04:31:17;;;;;;;16.80;12.23;;;;;;;;;;2071845;28;20205;-63
2021/09/25 04:32:18;;;;;;;15.70;12.15;;;;;;;;;;2071357;28;20189;-64
2021/09/25 04:33:18;;;;;;;13.52;11.68;;;;;;;;;;2069566;28;20170;-63
2021/09/25 04:34:18;;;;;;;15.30;11.93;;;;;;;;;;2070669;28;20661;-63
2021/09/25 04:35:18;;;;;;;12.45;10.35;;;;;;;;;;2074797;28;20626;-63
2021/09/25 04:36:19;;;;;;;13.45;10.63;;;;;;;;;;2072144;28;20591;-63
2021/09/25 04:37:19;;;;;;;13.73;11.10;;;;;;;;;;2074110;28;20177;-63
2021/09/25 04:38:19;;;;;;;18.10;11.48;;;;;;;;;;2072595;28;20265;-63
2021/09/25 04:39:20;;;;;;;12.68;10.43;;;;;;;;;;2072935;28;20520;-63
2021/09/25 04:40:20;;;;;;;13.32;11.27;;;;;;;;;;2071803;28;20180;-63
2021/09/25 04:41:20;;;;;;;16.33;12.27;;;;;;;;;;2072901;28;20216;-59
2021/09/25 04:42:20;;;;;;;14.93;11.93;;;;;;;;;;2072399;28;20520;-64
2021/09/25 04:43:21;;;;;;;13.93;11.48;;;;;;;;;;2063713;28;20741;-61
2021/09/25 04:44:21;;;;;;;12.27;11.00;;;;;;;;;;2055932;28;20202;-63
2021/09/25 04:45:21;;;;;;;14.98;11.80;;;;;;;;;;2056069;28;20170;-64
2021/09/25 04:46:21;;;;;;;13.88;11.40;;;;;;;;;;2063070;28;20181;-63
2021/09/25 04:47:22;;;;;;;13.32;11.93;;;;;;;;;;2063024;28;20177;-63
2021/09/25 04:48:22;;;;;;;15.13;10.43;;;;;;;;;;2072193;28;20216;-62
2021/09/25 04:49:22;;;;;;;12.65;11.35;;;;;;;;;;2071935;28;20196;-63
2021/09/25 04:50:27;;;;;;;13.20;11.60;;;;;;;;;;2072993;28;20173;-63
2021/09/25 04:51:27;;;;;;;12.45;11.25;;;;;;;;;;2071319;28;20193;-63
2021/09/25 04:52:27;;;;;;;15.27;11.50;;;;;;;;;;2074882;28;20200;-62
2021/09/25 04:53:30;;;;;;;13.27;10.45;;;;;;;;;;2063880;28;20161;-63
2021/09/25 04:54:30;;;;;;;12.23;10.95;;;;;;;;;;2062028;28;20690;-64
2021/09/25 04:55:31;;;;;;;12.35;11.05;;;;;;;;;;2064094;28;20260;-63
2021/09/25 04:56:31;;;;;;;14.38;11.10;;;;;;;;;;2063911;28;20181;-63
2021/09/25 04:57:32;;;;;;;12.23;10.50;;;;;;;;;;2072437;28;20177;-63
2021/09/25 04:58:32;;;;;;;12.18;10.85;;;;;;;;;;2071848;28;20193;-62
2021/09/25 04:59:32;;;;;;;13.25;11.02;;;;;;;;;;2071202;28;20216;-63
2021/09/25 05:00:33;;;;;;;16.27;11.30;;;;;;;;;;2063720;28;20230;-63
2021/09/25 05:01:34;;;;;;;12.50;10.18;;;;;;;;;;2064414;28;20199;-63
2021/09/25 05:02:34;;;;;;;14.88;10.85;;;;;;;;;;2063819;28;20655;-64
2021/09/25 05:03:35;;;;;;;16.58;11.77;;;;;;;;;;2063569;28;20244;-64
2021/09/25 05:04:35;;;;;;;12.00;10.52;;;;;;;;;;2071560;28;20171;-64
2021/09/25 05:05:35;;;;;;;14.70;10.68;;;;;;;;;;2064221;28;20566;-64
2021/09/25 05:06:36;;;;;;;11.77;10.45;;;;;;;;;;2065025;28;20575;-64
2021/09/25 05:07:36;;;;;;;15.93;11.25;;;;;;;;;;2072917;28;20216;-65
2021/09/25 05:08:36;;;;;;;12.18;10.93;;;;;;;;;;2072585;28;20180;-61
2021/09/25 05:09:37;;;;;;;12.15;10.25;;;;;;;;;;2071803;28;20250;-64
2021/09/25 05:10:37;;;;;;;12.68;10.60;;;;;;;;;;2063937;28;20635;-63
2021/09/25 05:11:37;;;;;;;12.43;10.50;;;;;;;;;;2064011;28;20201;-57
2021/09/25 05:12:37;;;;;;;16.77;11.15;;;;;;;;;;2071553;28;20181;-64
2021/09/25 05:13:38;;;;;;;13.00;10.15;;;;;;;;;;2072065;28;20171;-62
2021/09/25 05:14:40;;;;;;;13.65;11.30;;;;;;;;;;2069711;28;20681;-63
2021/09/25 05:15:41;;;;;;;13.68;10.88;;;;;;;;;;2073667;28;20165;-63
2021/09/25 05:16:41;;;;;;;14.80;11.02;;;;;;;;;;2070025;28;20256;-65
2021/09/25 05:17:41;;;;;;;13.18;10.90;;;;;;;;;;2073231;28;20668;-63
2021/09/25 05:18:41;;;;;;;13.40;10.35;;;;;;;;;;2071542;28;20649;-64
2021/09/25 05:19:42;;;;;;;13.85;11.13;;;;;;;;;;2072720;28;20529;-64
2021/09/25 05:20:42;;;;;;;13.88;11.13;;;;;;;;;;2072720;28;20165;-60
2021/09/25 05:21:42;;;;;;;13.80;10.50;;;;;;;;;;2072962;28;20172;-62
2021/09/25 05:22:42;;;;;;;13.52;11.10;;;;;;;;;;2061884;28;20213;-63
2021/09/25 05:23:43;;;;;;;14.73;10.43;;;;;;;;;;2064104;28;20177;-63
2021/09/25 05:24:45;;;;;;;13.30;11.02;;;;;;;;;;2073374;28;20194;-62
2021/09/25 05:25:45;;;;;;;15.65;9.88;;;;;;;;;;2073624;28;20663;-63
2021/09/25 05:26:48;;;;;;;11.85;10.10;;;;;;;;;;2073216;28;20213;-65
2021/09/25 05:27:49;;;;;;;12.68;10.82;;;;;;;;;;2070739;28;20192;-63
2021/09/25 05:28:49;;;;;;;12.25;10.25;;;;;;;;;;2064049;28;20189;-64
2021/09/25 05:29:49;;;;;;;15.95;10.13;;;;;;;;;;2064497;28;20329;-64
2021/09/25 05:30:50;;;;;;;13.48;10.25;;;;;;;;;;2073286;28;20181;-64
2021/09/25 05:31:50;;;;;;;14.18;10.38;;;;;;;;;;2073262;28;20172;-63
2021/09/25 05:32:50;;;;;;;11.73;10.18;;;;;;;;;;2072942;28;20261;-64
2021/09/25 05:33:50;;;;;;;13.85;10.48;;;;;;;;;;2073192;28;20172;-62
2021/09/25 05:34:51;;;;;;;14.57;9.73;;;;;;;;;;2073550;28;20189;-62
2021/09/25 05:35:51;;;;;;;11.88;10.00;;;;;;;;;;2073218;28;20173;-63
2021/09/25 05:36:54;;;;;;;12.52;9.88;;;;;;;;;;2073075;28;20206;-63
2021/09/25 05:37:54;;;;;;;12.45;9.73;;;;;;;;;;2064256;28;20223;-59
2021/09/25 05:38:54;;;;;;;14.68;10.65;;;;;;;;;;2064226;28;20224;-64
2021/09/25 05:39:55;;;;;;;13.50;10.38;;;;;;;;;;2064559;28;20166;-63
2021/09/25 05:40:55;;;;;;;11.13;9.98;;;;;;;;;;2064133;28;20192;-64
2021/09/25 05:41:55;;;;;;;15.32;10.70;;;;;;;;;;2072545;28;20311;-63
2021/09/25 05:42:56;;;;;;;12.65;10.32;;;;;;;;;;2072947;28;20165;-64
2021/09/25 05:43:56;;;;;;;12.98;11.38;;;;;;;;;;2072850;28;20197;-62
2021/09/25 05:44:56;;;;;;;13.30;10.32;;;;;;;;;;2072551;28;20646;-64
2021/09/25 05:45:57;;;;;;;12.32;9.95;;;;;;;;;;2063903;28;20265;-64
2021/09/25 05:46:57;;;;;;;11.70;10.02;;;;;;;;;;2064397;28;20554;-63
2021/09/25 05:47:57;;;;;;;12.10;10.70;;;;;;;;;;2072689;28;20258;-63
2021/09/25 05:48:57;;;;;;;14.52;10.95;;;;;;;;;;2074143;28;20268;-64
2021/09/25 05:49:58;;;;;;;13.68;10.25;;;;;;;;;;2064176;28;20676;-63
2021/09/25 05:50:58;;;;;;;12.50;10.10;;;;;;;;;;2064461;28;20170;-64
2021/09/25 05:51:58;;;;;;;13.32;10.98;;;;;;;;;;2072756;28;20177;-65
2021/09/25 05:52:58;;;;;;;12.93;10.55;;;;;;;;;;2073083;28;20173;-65